GOOY/DKR METAR and TAF weather

Enter ICAO airport designator
Station Type Date Time Source
GOOY METAR 2021/09/20 04:00 UTC NOAA

GOOY 200400Z 04004KT CAVOK 27/25 Q1012


Station Type Date Time Source
GOOY Decoded METAR 2021/09/20 04:00 UTC NOAA

Dakar / Yoff, Senegal (GOOY) 14-44N 017-30W 24M
Sep 20, 2021 - 12:00 AM EDT / 2021.09.20 0400 UTC
Wind: from the NE (040 degrees) at 5 MPH (4 KT):0
Visibility: greater than 7 mile(s):0
Temperature: 80 F (27 C)
Dew Point: 77 F (25 C)
Relative Humidity: 88%
Pressure (altimeter): 29.88 in. Hg (1012 hPa)
ob: GOOY 200400Z 04004KT CAVOK 27/25 Q1012
cycle: 4

Station Type Date Time Source
GOOY TAF 2021/09/20 06:36 UTC NOAA

TAF GOOY 200500Z 2006/2112 34008KT 9999 SCT013

Example: see airport list